createdAt,value
2023-02-12T00:01:35.291Z,101484.56
2023-02-12T00:04:05.230Z,101480.22
2023-02-12T00:06:33.736Z,101481.81
2023-02-12T00:09:02.214Z,101491.94
2023-02-12T00:11:31.536Z,101494.34
2023-02-12T00:14:00.507Z,101503.69
2023-02-12T00:16:30.885Z,101508.06
2023-02-12T00:19:00.910Z,101509.09
2023-02-12T00:21:30.765Z,101524.25
2023-02-12T00:23:59.716Z,101528.13
2023-02-12T00:26:28.093Z,101533.81
2023-02-12T00:28:57.317Z,101535.09
2023-02-12T00:31:29.163Z,101542.63
2023-02-12T00:33:57.805Z,101546.59
2023-02-12T00:36:30.914Z,101542.16
2023-02-12T00:38:59.871Z,101538.59
2023-02-12T00:41:28.809Z,101537.69
2023-02-12T00:43:57.540Z,101542.66
2023-02-12T00:46:26.030Z,101541.00
2023-02-12T00:48:54.437Z,101551.16
2023-02-12T00:51:23.109Z,101553.72
2023-02-12T00:53:52.874Z,101561.31
2023-02-12T00:56:21.281Z,101559.59
2023-02-12T00:58:49.638Z,101568.91
2023-02-12T01:01:18.847Z,101573.03
2023-02-12T01:03:47.327Z,101567.88
2023-02-12T01:06:15.758Z,101589.88
2023-02-12T01:08:44.139Z,101584.69
2023-02-12T01:11:14.965Z,101590.69
2023-02-12T01:13:43.346Z,101587.41
2023-02-12T01:16:17.723Z,101592.47
2023-02-12T01:18:47.595Z,101597.81
2023-02-12T01:21:19.174Z,101595.69
2023-02-12T01:23:48.818Z,101601.88
2023-02-12T01:26:20.365Z,101608.72
2023-02-12T01:28:53.217Z,101617.94
2023-02-12T01:31:25.445Z,101622.84
2023-02-12T01:33:56.578Z,101626.91
2023-02-12T01:36:26.077Z,101633.53
2023-02-12T01:38:54.643Z,101633.31
2023-02-12T01:41:28.414Z,101631.56
2023-02-12T01:44:14.175Z,101630.69
2023-02-12T01:46:44.142Z,101628.31
2023-02-12T01:49:18.993Z,101630.09
2023-02-12T01:51:51.031Z,101627.72
2023-02-12T01:54:22.013Z,101621.84
2023-02-12T01:56:51.830Z,101632.75
2023-02-12T01:59:22.231Z,101646.22
2023-02-12T02:01:50.748Z,101651.31
2023-02-12T02:04:24.762Z,101654.66
2023-02-12T02:06:58.443Z,101651.19
2023-02-12T02:09:28.234Z,101659.03
2023-02-12T02:12:15.663Z,101668.41
2023-02-12T02:14:46.204Z,101672.44
2023-02-12T02:17:35.557Z,101675.00
2023-02-12T02:20:43.996Z,101686.84
2023-02-12T02:23:56.788Z,101681.75
2023-02-12T02:26:51.682Z,101689.31
2023-02-12T02:29:50.277Z,101701.94
2023-02-12T02:32:26.032Z,101707.09
2023-02-12T02:35:01.599Z,101729.97
2023-02-12T02:37:37.368Z,101723.94
2023-02-12T02:40:16.071Z,101725.84
2023-02-12T02:42:52.870Z,101730.03
2023-02-12T02:45:29.272Z,101730.75
2023-02-12T02:48:05.049Z,101730.03
2023-02-12T02:50:39.822Z,101737.59
2023-02-12T02:53:14.454Z,101734.25
2023-02-12T02:55:48.239Z,101748.72
2023-02-12T02:58:21.954Z,101755.31
2023-02-12T03:00:57.304Z,101767.38
2023-02-12T03:03:33.721Z,101776.84
2023-02-12T03:06:09.403Z,101783.75
2023-02-12T03:08:43.104Z,101795.81
2023-02-12T03:11:16.810Z,101784.91
2023-02-12T03:13:50.233Z,101797.63
2023-02-12T03:16:23.350Z,101812.00
2023-02-12T03:18:57.147Z,101818.69
2023-02-12T03:21:32.605Z,101820.22
2023-02-12T03:24:09.076Z,101829.41
2023-02-12T03:26:46.505Z,101824.03
2023-02-12T03:29:15.203Z,101819.56
2023-02-12T03:31:57.468Z,101831.38
2023-02-12T03:34:36.531Z,101839.59
2023-02-12T03:37:11.314Z,101847.91
2023-02-12T03:39:50.803Z,101845.94
2023-02-12T03:42:33.159Z,101853.22
2023-02-12T03:45:10.481Z,101851.31
2023-02-12T03:47:47.353Z,101863.03
2023-02-12T03:50:23.248Z,101871.47
2023-02-12T03:52:52.512Z,101866.38
2023-02-12T03:55:22.039Z,101879.09
2023-02-12T03:57:59.038Z,101896.06
2023-02-12T04:00:28.532Z,101887.56
2023-02-12T04:02:57.900Z,101891.97
2023-02-12T04:05:29.087Z,101886.94
2023-02-12T04:08:00.151Z,101891.34
2023-02-12T04:10:36.941Z,101888.78
2023-02-12T04:13:19.472Z,101896.41
2023-02-12T04:16:14.257Z,101897.22
2023-02-12T04:18:46.066Z,101903.25
2023-02-12T04:21:33.290Z,101897.03
2023-02-12T04:24:12.500Z,101903.69
2023-02-12T04:26:50.907Z,101904.50
2023-02-12T04:29:27.987Z,101904.38
2023-02-12T04:32:05.347Z,101902.47
2023-02-12T04:34:41.029Z,101909.34
2023-02-12T04:37:18.164Z,101908.47
2023-02-12T04:39:47.327Z,101911.94
2023-02-12T04:42:15.845Z,101911.94
2023-02-12T04:44:46.206Z,101918.75
2023-02-12T04:47:15.611Z,101913.69
2023-02-12T04:49:44.196Z,101914.56
2023-02-12T04:52:13.949Z,101930.25
2023-02-12T04:54:42.281Z,101932.84
2023-02-12T04:57:11.043Z,101932.06
2023-02-12T04:59:39.392Z,101933.84
2023-02-12T05:02:07.757Z,101938.00
2023-02-12T05:04:36.156Z,101949.06
2023-02-12T05:07:04.615Z,101956.53
2023-02-12T05:09:34.397Z,101948.72
2023-02-12T05:12:02.767Z,101970.63
2023-02-12T05:14:32.000Z,101970.63
2023-02-12T05:17:00.315Z,101984.06
2023-02-12T05:19:28.792Z,101983.25
2023-02-12T05:21:57.157Z,101983.31
2023-02-12T05:24:25.949Z,101993.78
2023-02-12T05:26:56.080Z,101991.31
2023-02-12T05:29:24.686Z,101987.00
2023-02-12T05:31:53.254Z,101990.19
2023-02-12T05:34:21.656Z,102003.56
2023-02-12T05:36:50.039Z,102003.22
2023-02-12T05:39:18.538Z,102008.13
2023-02-12T05:41:46.902Z,102012.25
2023-02-12T05:44:16.685Z,102016.19
2023-02-12T05:46:45.519Z,102016.03
2023-02-12T05:49:14.036Z,102032.22
2023-02-12T05:51:42.469Z,102037.41
2023-02-12T05:54:12.205Z,102035.13
2023-02-12T05:56:45.757Z,102029.16
2023-02-12T05:59:18.836Z,102040.38
2023-02-12T06:01:50.197Z,102044.06
2023-02-12T06:04:23.582Z,102046.78
2023-02-12T06:06:52.651Z,102059.66
2023-02-12T06:09:21.319Z,102066.66
2023-02-12T06:11:49.900Z,102063.50
2023-02-12T06:14:21.197Z,102080.66
2023-02-12T06:16:52.831Z,102087.50
2023-02-12T06:19:22.203Z,102089.59
2023-02-12T06:21:51.250Z,102090.47
2023-02-12T06:24:19.936Z,102093.63
2023-02-12T06:26:51.948Z,102089.16
2023-02-12T06:29:22.489Z,102091.53
2023-02-12T06:31:51.074Z,102095.41
2023-02-12T06:34:19.517Z,102100.13
2023-02-12T06:36:49.084Z,102100.56
2023-02-12T06:39:18.957Z,102106.06
2023-02-12T06:41:47.544Z,102097.38
2023-02-12T06:44:16.106Z,102098.19
2023-02-12T06:46:46.149Z,102105.81
2023-02-12T06:49:16.283Z,102105.81
2023-02-12T06:51:44.764Z,102107.81
2023-02-12T06:54:16.407Z,102107.38
2023-02-12T06:56:45.551Z,102110.97
2023-02-12T06:59:16.400Z,102112.63
2023-02-12T07:01:46.282Z,102113.78
2023-02-12T07:04:15.401Z,102116.16
2023-02-12T07:06:43.990Z,102120.28
2023-02-12T07:09:13.596Z,102119.66
2023-02-12T07:11:41.963Z,102126.75
2023-02-12T07:14:16.059Z,102128.78
2023-02-12T07:16:45.962Z,102134.78
2023-02-12T07:19:18.196Z,102141.59
2023-02-12T07:21:46.752Z,102144.56
2023-02-12T07:24:16.140Z,102144.22
2023-02-12T07:26:45.113Z,102142.25
2023-02-12T07:29:13.565Z,102137.31
2023-02-12T07:31:42.642Z,102141.28
2023-02-12T07:34:12.728Z,102133.28
2023-02-12T07:36:42.204Z,102135.72
2023-02-12T07:39:13.652Z,102120.28
2023-02-12T07:41:42.072Z,102128.56
2023-02-12T07:44:14.106Z,102126.66
2023-02-12T07:46:48.164Z,102133.16
2023-02-12T07:49:20.749Z,102143.00
2023-02-12T07:51:49.992Z,102138.31
2023-02-12T07:54:18.881Z,102142.19
2023-02-12T07:56:47.901Z,102150.03
2023-02-12T07:59:20.646Z,102148.81
2023-02-12T08:01:52.090Z,102145.56
2023-02-12T08:04:25.422Z,102150.38
2023-02-12T08:06:56.278Z,102151.53
2023-02-12T08:09:27.520Z,102146.56
2023-02-12T08:11:56.059Z,102157.44
2023-02-12T08:14:24.911Z,102164.38
2023-02-12T08:16:53.810Z,102167.00
2023-02-12T08:19:26.340Z,102167.66
2023-02-12T08:21:56.727Z,102167.47
2023-02-12T08:24:25.648Z,102172.47
2023-02-12T08:26:54.764Z,102171.06
2023-02-12T08:29:26.019Z,102171.13
2023-02-12T08:31:58.759Z,102178.88
2023-02-12T08:34:30.596Z,102171.00
2023-02-12T08:36:59.713Z,102177.75
2023-02-12T08:39:30.778Z,102180.09
2023-02-12T08:42:01.381Z,102169.97
2023-02-12T08:44:30.496Z,102170.97
2023-02-12T08:46:59.007Z,102166.81
2023-02-12T08:49:31.363Z,102159.75
2023-02-12T08:52:02.559Z,102159.97
2023-02-12T08:54:32.846Z,102162.09
2023-02-12T08:57:03.228Z,102152.59
2023-02-12T08:59:32.065Z,102159.09
2023-02-12T09:02:00.942Z,102173.72
2023-02-12T09:04:31.414Z,102178.94
2023-02-12T09:07:00.034Z,102177.22
2023-02-12T09:09:28.688Z,102178.72
2023-02-12T09:11:57.117Z,102179.06
2023-02-12T09:14:25.503Z,102174.06
2023-02-12T09:16:54.920Z,102162.78
2023-02-12T09:19:24.144Z,102165.16
2023-02-12T09:21:56.318Z,102166.75
2023-02-12T09:24:27.636Z,102165.31
2023-02-12T09:26:56.493Z,102172.88
2023-02-12T09:29:24.989Z,102169.25
2023-02-12T09:31:53.919Z,102172.75
2023-02-12T09:34:22.408Z,102167.91
2023-02-12T09:36:50.908Z,102169.56
2023-02-12T09:39:20.663Z,102173.41
2023-02-12T09:42:22.527Z,102171.88
2023-02-12T09:45:03.137Z,102171.09
2023-02-12T09:47:39.564Z,102174.19
2023-02-12T09:50:28.618Z,102181.56
2023-02-12T09:52:59.391Z,102191.59
2023-02-12T09:55:32.993Z,102179.03
2023-02-12T09:58:08.683Z,102183.31
2023-02-12T10:00:37.124Z,102183.97
2023-02-12T10:03:14.268Z,102182.53
2023-02-12T10:05:48.092Z,102178.72
2023-02-12T10:08:50.500Z,102170.69
2023-02-12T10:11:53.200Z,102171.56
2023-02-12T10:14:52.018Z,102171.31
2023-02-12T10:17:34.487Z,102170.63
2023-02-12T10:20:40.393Z,102168.25
2023-02-12T10:23:39.347Z,102169.47
2023-02-12T10:26:19.494Z,102176.69
2023-02-12T10:28:50.618Z,102177.84
2023-02-12T10:31:30.242Z,102177.84
2023-02-12T10:33:59.073Z,102180.50
2023-02-12T10:36:43.063Z,102173.59
2023-02-12T10:39:19.799Z,102168.72
2023-02-12T10:42:09.559Z,102165.84
2023-02-12T10:44:39.471Z,102165.25
2023-02-12T10:47:08.689Z,102169.22
2023-02-12T10:49:37.198Z,102169.88
2023-02-12T10:52:20.086Z,102165.56
2023-02-12T10:54:50.283Z,102158.69
2023-02-12T10:57:25.933Z,102155.44
2023-02-12T11:00:15.054Z,102162.28
2023-02-12T11:03:07.102Z,102168.97
2023-02-12T11:05:37.925Z,102168.63
2023-02-12T11:08:08.408Z,102170.13
2023-02-12T11:10:41.430Z,102165.06
2023-02-12T11:13:26.213Z,102162.72
2023-02-12T11:15:56.728Z,102166.44
2023-02-12T11:18:28.484Z,102170.47
2023-02-12T11:20:59.787Z,102173.03
2023-02-12T11:23:30.957Z,102174.25
2023-02-12T11:26:02.996Z,102172.84
2023-02-12T11:28:32.950Z,102180.06
2023-02-12T11:31:05.411Z,102173.13
2023-02-12T11:33:36.238Z,102166.75
2023-02-12T11:36:15.867Z,102156.59
2023-02-12T11:38:54.480Z,102153.28
2023-02-12T11:41:34.591Z,102143.28
2023-02-12T11:44:10.092Z,102147.56
2023-02-12T11:46:42.034Z,102143.63
2023-02-12T11:49:20.345Z,102146.50
2023-02-12T11:51:50.383Z,102134.69
2023-02-12T11:54:25.552Z,102134.72
2023-02-12T11:56:55.469Z,102134.91
2023-02-12T11:59:36.122Z,102131.63
2023-02-12T12:02:25.938Z,102141.00
2023-02-12T12:05:04.480Z,102133.81
2023-02-12T12:07:37.665Z,102149.25
2023-02-12T12:10:14.851Z,102138.09
2023-02-12T12:12:49.246Z,102147.97
2023-02-12T12:15:55.592Z,102145.72
2023-02-12T12:18:50.177Z,102142.03
2023-02-12T12:21:26.990Z,102138.75
2023-02-12T12:24:00.759Z,102135.78
2023-02-12T12:26:34.471Z,102136.06
2023-02-12T12:29:08.397Z,102143.00
2023-02-12T12:31:41.539Z,102144.53
2023-02-12T12:34:14.632Z,102152.56
2023-02-12T12:37:26.028Z,102148.88
2023-02-12T12:40:14.678Z,102157.00
2023-02-12T12:43:11.372Z,102156.38
2023-02-12T12:46:23.915Z,102145.22
2023-02-12T12:49:35.893Z,102150.44
2023-02-12T12:52:42.969Z,102156.28
2023-02-12T12:56:03.386Z,102157.94
2023-02-12T12:58:51.080Z,102150.88
2023-02-12T13:01:48.828Z,102150.81
2023-02-12T13:04:50.152Z,102144.69
2023-02-12T13:07:34.742Z,102141.97
2023-02-12T13:10:24.298Z,102147.22
2023-02-12T13:13:19.678Z,102142.13
2023-02-12T13:15:56.576Z,102145.97
2023-02-12T13:18:48.568Z,102143.22
2023-02-12T13:21:35.473Z,102142.09
2023-02-12T13:24:12.225Z,102145.78
2023-02-12T13:26:50.541Z,102149.50
2023-02-12T13:29:22.666Z,102147.31
2023-02-12T13:31:57.545Z,102148.94
2023-02-12T13:34:30.748Z,102153.06
2023-02-12T13:37:03.847Z,102154.63
2023-02-12T13:39:37.381Z,102159.84
2023-02-12T13:42:22.985Z,102160.28
2023-02-12T13:44:59.600Z,102161.03
2023-02-12T13:47:37.876Z,102151.63
2023-02-12T13:50:25.454Z,102155.06
2023-02-12T13:53:01.025Z,102145.59
2023-02-12T13:55:34.906Z,102146.06
2023-02-12T13:58:49.527Z,102153.34
2023-02-12T14:01:47.115Z,102144.06
2023-02-12T14:04:29.752Z,102145.22
2023-02-12T14:07:02.768Z,102143.78
2023-02-12T14:09:37.878Z,102151.91
2023-02-12T14:12:09.979Z,102144.91
2023-02-12T14:14:42.651Z,102145.47
2023-02-12T14:17:53.010Z,102148.50
2023-02-12T14:20:30.662Z,102148.94
2023-02-12T14:23:26.840Z,102151.84
2023-02-12T14:26:03.650Z,102141.97
2023-02-12T14:28:45.569Z,102143.94
2023-02-12T14:31:35.209Z,102134.06
2023-02-12T14:34:50.059Z,102126.44
2023-02-12T14:37:38.984Z,102131.22
2023-02-12T14:40:42.862Z,102120.44
2023-02-12T14:43:33.322Z,102127.84
2023-02-12T14:46:45.162Z,102124.72
2023-02-12T14:49:25.095Z,102125.91
2023-02-12T14:51:59.676Z,102126.34
2023-02-12T14:54:34.060Z,102116.59
2023-02-12T14:57:08.268Z,102131.69
2023-02-12T14:59:42.438Z,102135.66
2023-02-12T15:02:19.839Z,102133.44
2023-02-12T15:04:48.833Z,102134.69
2023-02-12T15:07:29.905Z,102135.19
2023-02-12T15:10:07.546Z,102143.56
2023-02-12T15:12:40.912Z,102139.91
2023-02-12T15:15:22.540Z,102142.19
2023-02-12T15:17:59.724Z,102139.25
2023-02-12T15:20:36.474Z,102141.50
2023-02-12T15:23:39.262Z,102149.47
2023-02-12T15:26:14.801Z,102154.41
2023-02-12T15:28:44.421Z,102148.00
2023-02-12T15:31:18.094Z,102150.22
2023-02-12T15:33:50.080Z,102155.94
2023-02-12T15:36:22.371Z,102157.38
2023-02-12T15:38:55.663Z,102162.94
2023-02-12T15:41:37.185Z,102158.59
2023-02-12T15:44:22.045Z,102158.25
2023-02-12T15:47:13.162Z,102162.16
2023-02-12T15:49:44.088Z,102168.69
2023-02-12T15:52:20.793Z,102168.34
2023-02-12T15:54:51.334Z,102165.63
2023-02-12T15:57:24.276Z,102161.28
2023-02-12T15:59:54.046Z,102160.25
2023-02-12T16:02:28.453Z,102158.50
2023-02-12T16:04:57.955Z,102154.91
2023-02-12T16:07:27.700Z,102153.94
2023-02-12T16:09:58.424Z,102152.91
2023-02-12T16:12:32.492Z,102145.78
2023-02-12T16:15:01.864Z,102153.34
2023-02-12T16:17:33.183Z,102159.88
2023-02-12T16:20:06.593Z,102146.88
2023-02-12T16:22:39.030Z,102140.84
2023-02-12T16:25:18.512Z,102146.63
2023-02-12T16:27:59.040Z,102142.19
2023-02-12T16:30:34.470Z,102144.72
2023-02-12T16:33:03.814Z,102139.47
2023-02-12T16:35:34.767Z,102142.63
2023-02-12T16:38:25.504Z,102136.59
2023-02-12T16:41:34.293Z,102130.47
2023-02-12T16:44:31.590Z,102130.38
2023-02-12T16:47:02.826Z,102130.19
2023-02-12T16:49:31.343Z,102139.50
2023-02-12T16:52:35.994Z,102130.06
2023-02-12T16:55:05.048Z,102123.19
2023-02-12T16:57:34.898Z,102135.91
2023-02-12T17:00:03.307Z,102121.44
2023-02-12T17:02:31.890Z,102129.00
2023-02-12T17:05:01.829Z,102129.78
2023-02-12T17:07:31.174Z,102130.50
2023-02-12T17:09:59.627Z,102129.53
2023-02-12T17:12:29.087Z,102123.47
2023-02-12T17:14:58.907Z,102125.06
2023-02-12T17:17:27.396Z,102128.31
2023-02-12T17:19:55.832Z,102136.03
2023-02-12T17:22:27.440Z,102137.59
2023-02-12T17:24:55.900Z,102132.34
2023-02-12T17:27:24.374Z,102147.72
2023-02-12T17:29:52.804Z,102142.69
2023-02-12T17:32:24.592Z,102145.06
2023-02-12T17:34:53.197Z,102151.81
2023-02-12T17:37:22.337Z,102153.50
2023-02-12T17:39:50.710Z,102155.16
2023-02-12T17:42:19.411Z,102157.59
2023-02-12T17:44:47.841Z,102166.03
2023-02-12T17:47:16.297Z,102177.78
2023-02-12T17:49:46.283Z,102187.00
2023-02-12T17:52:14.720Z,102181.97
2023-02-12T17:54:46.704Z,102177.78
2023-02-12T17:57:15.887Z,102179.53
2023-02-12T17:59:44.497Z,102162.59
2023-02-12T18:02:13.347Z,102157.59
2023-02-12T18:04:41.991Z,102162.16
2023-02-12T18:07:11.818Z,102159.69
2023-02-12T18:09:40.320Z,102152.88
2023-02-12T18:12:09.630Z,102157.25
2023-02-12T18:14:38.022Z,102154.78
2023-02-12T18:17:06.434Z,102158.38
2023-02-12T18:19:35.167Z,102155.22
2023-02-12T18:22:03.669Z,102154.44
2023-02-12T18:24:35.091Z,102141.78
2023-02-12T18:27:03.491Z,102151.28
2023-02-12T18:29:31.972Z,102146.25
2023-02-12T18:32:00.379Z,102142.91
2023-02-12T18:34:28.898Z,102142.16
2023-02-12T18:36:57.738Z,102134.75
2023-02-12T18:39:26.182Z,102138.19
2023-02-12T18:41:55.928Z,102132.47
2023-02-12T18:44:24.394Z,102137.72
2023-02-12T18:46:52.722Z,102145.53
2023-02-12T18:49:21.093Z,102132.88
2023-02-12T18:51:49.620Z,102122.88
2023-02-12T18:54:19.478Z,102129.78
2023-02-12T18:56:50.865Z,102123.91
2023-02-12T18:59:21.814Z,102119.78
2023-02-12T19:01:51.812Z,102112.22
2023-02-12T19:04:23.827Z,102119.16
2023-02-12T19:06:55.628Z,102121.69
2023-02-12T19:09:27.896Z,102117.47
2023-02-12T19:12:00.493Z,102122.56
2023-02-12T19:14:30.699Z,102117.66
2023-02-12T19:16:59.219Z,102110.88
2023-02-12T19:19:28.396Z,102110.16
2023-02-12T19:21:56.959Z,102113.72
2023-02-12T19:24:27.216Z,102112.00
2023-02-12T19:26:58.935Z,102109.63
2023-02-12T19:29:28.023Z,102104.53
2023-02-12T19:31:58.055Z,102106.38
2023-02-12T19:34:27.355Z,102105.50
2023-02-12T19:36:55.953Z,102096.19
2023-02-12T19:39:26.084Z,102084.31
2023-02-12T19:41:56.255Z,102083.50
2023-02-12T19:44:26.674Z,102084.50
2023-02-12T19:46:55.183Z,102077.78
2023-02-12T19:49:28.564Z,102074.59
2023-02-12T19:51:57.169Z,102077.31
2023-02-12T19:54:26.328Z,102073.09
2023-02-12T19:56:55.881Z,102084.47
2023-02-12T19:59:26.913Z,102072.72
2023-02-12T20:01:56.546Z,102081.28
2023-02-12T20:04:26.885Z,102075.41
2023-02-12T20:06:55.413Z,102069.53
2023-02-12T20:09:24.589Z,102079.88
2023-02-12T20:11:53.276Z,102067.19
2023-02-12T20:14:22.878Z,102068.06
2023-02-12T20:16:52.215Z,102068.16
2023-02-12T20:19:27.803Z,102074.19
2023-02-12T20:21:57.638Z,102072.63
2023-02-12T20:24:28.538Z,102066.66
2023-02-12T20:26:59.451Z,102067.53
2023-02-12T20:29:28.909Z,102063.47
2023-02-12T20:31:57.712Z,102063.69
2023-02-12T20:34:27.831Z,102056.91
2023-02-12T20:36:56.412Z,102047.59
2023-02-12T20:39:25.154Z,102046.06
2023-02-12T20:41:53.826Z,102056.47
2023-02-12T20:44:23.211Z,102042.09
2023-02-12T20:46:57.256Z,102033.47
2023-02-12T20:49:27.702Z,102042.97
2023-02-12T20:51:56.649Z,102028.31
2023-02-12T20:54:25.973Z,102036.19
2023-02-12T20:56:55.226Z,102043.84
2023-02-12T20:59:23.753Z,102041.50
2023-02-12T21:01:52.131Z,102034.72
2023-02-12T21:04:21.283Z,102041.66
2023-02-12T21:06:51.008Z,102023.88
2023-02-12T21:09:20.405Z,102041.66
2023-02-12T21:11:49.214Z,102024.69
2023-02-12T21:14:22.354Z,102036.63
2023-02-12T21:16:52.246Z,102026.53
2023-02-12T21:19:21.322Z,102018.78
2023-02-12T21:21:51.649Z,102023.09
2023-02-12T21:24:22.579Z,102030.81
2023-02-12T21:26:51.817Z,102029.94
2023-02-12T21:29:21.666Z,102031.53
2023-02-12T21:31:52.242Z,102033.38
2023-02-12T21:34:24.569Z,102025.72
2023-02-12T21:36:56.662Z,102024.19
2023-02-12T21:39:28.019Z,102020.56
2023-02-12T21:42:00.123Z,102027.53
2023-02-12T21:44:29.690Z,102030.00
2023-02-12T21:46:59.005Z,102030.00
2023-02-12T21:49:28.200Z,102019.75
2023-02-12T21:52:02.228Z,102024.91
2023-02-12T21:54:32.236Z,102020.63
2023-02-12T21:57:01.778Z,102014.66
2023-02-12T21:59:32.346Z,102012.97
2023-02-12T22:02:01.863Z,102014.66
2023-02-12T22:04:30.674Z,102010.41
2023-02-12T22:07:03.304Z,102001.75
2023-02-12T22:09:32.214Z,102007.00
2023-02-12T22:12:00.548Z,102013.84
2023-02-12T22:14:28.916Z,102023.16
2023-02-12T22:16:57.560Z,102019.09
2023-02-12T22:19:26.073Z,102015.81
2023-02-12T22:21:54.407Z,102007.44
2023-02-12T22:24:24.363Z,102003.34
2023-02-12T22:26:52.783Z,102004.31
2023-02-12T22:29:22.892Z,102004.38
2023-02-12T22:31:52.009Z,102002.63
2023-02-12T22:34:20.711Z,102007.88
2023-02-12T22:36:49.238Z,102000.25
2023-02-12T22:39:18.648Z,102007.94
2023-02-12T22:41:48.396Z,102000.31
2023-02-12T22:44:20.707Z,101996.06
2023-02-12T22:46:50.199Z,101986.69
2023-02-12T22:49:18.701Z,101989.22
2023-02-12T22:51:47.160Z,101984.22
2023-02-12T22:54:17.970Z,101980.00
2023-02-12T22:56:51.268Z,101984.28
2023-02-12T22:59:20.296Z,101979.19
2023-02-12T23:01:48.712Z,101973.38
2023-02-12T23:04:19.507Z,101964.97
2023-02-12T23:06:48.037Z,101972.75
2023-02-12T23:09:19.113Z,101965.19
2023-02-12T23:11:49.696Z,101960.22
2023-02-12T23:14:18.756Z,101964.44
2023-02-12T23:16:47.469Z,101953.53
2023-02-12T23:19:16.846Z,101951.03
2023-02-12T23:21:45.464Z,101954.69
2023-02-12T23:24:16.186Z,101943.72
2023-02-12T23:26:44.850Z,101941.25
2023-02-12T23:29:14.642Z,101932.94
2023-02-12T23:31:43.137Z,101934.78
2023-02-12T23:34:11.912Z,101933.16
2023-02-12T23:36:40.252Z,101931.69
2023-02-12T23:39:09.608Z,101921.53
2023-02-12T23:41:37.987Z,101917.41
2023-02-12T23:44:06.794Z,101915.75
2023-02-12T23:46:36.632Z,101909.94
2023-02-12T23:49:05.507Z,101902.28
2023-02-12T23:51:34.411Z,101895.50
2023-02-12T23:54:03.066Z,101899.78
2023-02-12T23:56:31.537Z,101891.34
2023-02-12T23:58:59.902Z,101891.41
